Time;durP1;ratioP1;P1;durP2;ratioP2;P2;SDS_P1;SDS_P2;PMS_P1;PMS_P2;Temp;Humidity;BMP_temperature;BMP_pressure;BME280_temperature;BME280_humidity;BME280_pressure;Samples;Min_cycle;Max_cycle;Signal;HPM_P1;HPM_P2
2021/10/25 00:02:06;;;;;;;17.30;8.35;;;;;;;5.05;100.00;101913.88;5201715;28;20387;-73
2021/10/25 00:04:36;;;;;;;18.20;9.15;;;;;;;5.08;100.00;101927.00;5201468;28;20493;-73
2021/10/25 00:07:07;;;;;;;21.73;9.20;;;;;;;5.08;100.00;101919.00;5201872;28;20025;-75
2021/10/25 00:09:38;;;;;;;22.52;8.90;;;;;;;5.06;100.00;101920.91;5201256;28;20049;-73
2021/10/25 00:12:08;;;;;;;16.95;8.25;;;;;;;5.05;100.00;101927.19;5201621;28;20104;-74
2021/10/25 00:14:40;;;;;;;16.50;7.78;;;;;;;5.03;100.00;101918.47;5201915;28;20028;-74
2021/10/25 00:17:10;;;;;;;20.90;10.25;;;;;;;5.03;100.00;101928.25;5201474;28;20036;-74
2021/10/25 00:19:41;;;;;;;16.13;8.25;;;;;;;5.03;100.00;101922.94;5201043;28;20017;-74
2021/10/25 00:22:11;;;;;;;19.02;9.00;;;;;;;5.12;100.00;101919.63;5201638;28;20029;-73
2021/10/25 00:24:42;;;;;;;17.10;8.32;;;;;;;5.22;100.00;101923.41;5201284;28;20032;-73
2021/10/25 00:27:13;;;;;;;20.90;9.63;;;;;;;5.33;100.00;101922.66;5201233;28;20105;-73
2021/10/25 00:29:43;;;;;;;19.15;8.32;;;;;;;5.41;100.00;101925.63;5201105;28;20021;-73
2021/10/25 00:32:14;;;;;;;18.55;8.23;;;;;;;5.50;100.00;101918.81;5201399;28;20029;-73
2021/10/25 00:34:44;;;;;;;17.13;8.10;;;;;;;5.54;100.00;101915.81;5195975;28;20017;-74
2021/10/25 00:37:14;;;;;;;22.35;8.65;;;;;;;5.57;100.00;101914.75;5200972;28;20025;-72
2021/10/25 00:39:45;;;;;;;20.60;7.72;;;;;;;5.55;100.00;101900.69;5200683;28;20083;-73
2021/10/25 00:42:16;;;;;;;18.80;8.35;;;;;;;5.53;100.00;101907.97;5200522;28;20056;-73
2021/10/25 00:44:46;;;;;;;18.05;8.50;;;;;;;5.49;100.00;101898.47;5200780;28;20029;-72
2021/10/25 00:47:17;;;;;;;21.58;7.95;;;;;;;5.43;100.00;101903.28;5200564;28;20064;-72
2021/10/25 00:49:47;;;;;;;21.55;8.85;;;;;;;5.41;100.00;101906.97;5200463;28;20060;-72
2021/10/25 00:52:19;;;;;;;20.27;7.82;;;;;;;5.42;100.00;101901.56;5200689;28;20032;-73
2021/10/25 00:54:49;;;;;;;18.90;7.43;;;;;;;5.45;100.00;101898.69;5200481;28;20022;-73
2021/10/25 00:57:20;;;;;;;22.88;8.80;;;;;;;5.53;100.00;101903.47;5200967;28;20055;-72
2021/10/25 00:59:50;;;;;;;18.98;7.70;;;;;;;5.58;100.00;101898.69;5200283;28;20032;-74
2021/10/25 01:02:21;;;;;;;17.88;7.60;;;;;;;5.61;100.00;101895.78;5201155;28;20475;-73
2021/10/25 01:04:51;;;;;;;15.00;7.28;;;;;;;5.65;100.00;101891.09;5201391;28;20029;-73
2021/10/25 01:07:22;;;;;;;25.42;8.48;;;;;;;5.71;100.00;101880.84;5201192;28;20021;-73
2021/10/25 01:09:53;;;;;;;19.02;9.88;;;;;;;5.80;100.00;101890.00;5200866;28;20053;-73
2021/10/25 01:12:25;;;;;;;14.52;7.53;;;;;;;5.90;100.00;101872.41;5201587;28;20459;-72
2021/10/25 01:14:55;;;;;;;21.88;6.72;;;;;;;5.96;100.00;101874.66;5200920;28;20026;-73
2021/10/25 01:17:27;;;;;;;13.82;6.88;;;;;;;6.05;100.00;101885.59;5200989;28;20030;-73
2021/10/25 01:19:59;;;;;;;12.02;6.63;;;;;;;6.11;100.00;101883.34;5200435;28;20076;-73
2021/10/25 01:22:29;;;;;;;15.10;6.35;;;;;;;6.18;100.00;101875.78;5200876;28;20101;-73
2021/10/25 01:25:00;;;;;;;17.13;7.30;;;;;;;6.25;100.00;101886.81;5200815;28;20570;-72
2021/10/25 01:27:31;;;;;;;11.90;6.60;;;;;;;6.34;100.00;101888.81;5200833;28;20502;-73
2021/10/25 01:30:03;;;;;;;13.48;6.20;;;;;;;6.36;100.00;101890.38;5200555;28;20033;-73
2021/10/25 01:32:34;;;;;;;11.65;6.07;;;;;;;6.39;100.00;101884.00;5204016;28;20417;-73
2021/10/25 01:35:05;;;;;;;13.95;6.60;;;;;;;6.42;100.00;101889.91;5204569;28;20006;-73
2021/10/25 01:37:37;;;;;;;13.40;6.60;;;;;;;6.47;100.00;101881.59;5204789;28;20025;-72
2021/10/25 01:40:11;;;;;;;13.70;6.57;;;;;;;6.51;100.00;101893.72;5204008;28;20029;-73
2021/10/25 01:42:42;;;;;;;20.83;6.90;;;;;;;6.57;100.00;101890.59;5204459;28;20479;-74
2021/10/25 01:45:21;;;;;;;11.20;5.75;;;;;;;6.59;100.00;101887.84;5204484;28;20025;-73
2021/10/25 01:47:53;;;;;;;17.60;6.78;;;;;;;6.60;100.00;101889.53;5204611;28;20078;-72
2021/10/25 01:50:24;;;;;;;16.52;6.35;;;;;;;6.62;100.00;101883.09;5204185;28;20025;-72
2021/10/25 01:52:55;;;;;;;17.73;6.38;;;;;;;6.64;100.00;101893.69;5204711;28;20120;-72
2021/10/25 01:55:26;;;;;;;17.80;6.45;;;;;;;6.69;100.00;101887.03;5203913;28;20068;-72
2021/10/25 01:57:56;;;;;;;13.57;6.13;;;;;;;6.75;100.00;101880.38;5204104;28;20029;-73
2021/10/25 02:00:27;;;;;;;17.23;6.22;;;;;;;6.80;100.00;101883.53;5203852;28;20037;-72
2021/10/25 02:02:57;;;;;;;11.98;6.43;;;;;;;6.87;100.00;101881.25;5204032;28;20545;-72
2021/10/25 02:05:28;;;;;;;14.95;6.10;;;;;;;6.89;100.00;101876.66;5203675;28;20483;-72
2021/10/25 02:07:59;;;;;;;10.45;5.55;;;;;;;6.95;100.00;101874.38;5203733;28;20083;-73
2021/10/25 02:10:31;;;;;;;13.43;6.35;;;;;;;6.99;100.00;101873.16;5203400;28;20025;-73
2021/10/25 02:13:01;;;;;;;14.73;6.20;;;;;;;7.02;100.00;101869.41;5204475;28;20076;-72
2021/10/25 02:15:32;;;;;;;11.55;5.15;;;;;;;7.04;100.00;101871.97;5203803;28;20029;-73
2021/10/25 02:18:04;;;;;;;11.65;5.28;;;;;;;7.11;100.00;101867.84;5203553;28;20040;-73
2021/10/25 02:20:34;;;;;;;10.48;6.22;;;;;;;7.18;100.00;101859.25;5203357;28;20057;-74
2021/10/25 02:23:05;;;;;;;11.77;5.65;;;;;;;7.22;100.00;101865.19;5203898;28;20056;-72
2021/10/25 02:25:36;;;;;;;9.55;5.13;;;;;;;7.31;100.00;101863.63;5203810;28;20022;-72
2021/10/25 02:28:07;;;;;;;10.65;4.75;;;;;;;7.31;100.00;101856.47;5203615;28;20072;-72
2021/10/25 02:30:37;;;;;;;10.73;5.28;;;;;;;7.34;100.00;101850.91;5203342;28;20080;-72
2021/10/25 02:33:08;;;;;;;11.35;5.05;;;;;;;7.36;100.00;101856.94;5203611;28;20021;-73
2021/10/25 02:35:39;;;;;;;13.20;7.50;;;;;;;7.39;100.00;101848.72;5203729;28;20017;-72
2021/10/25 02:38:09;;;;;;;10.52;4.85;;;;;;;7.48;100.00;101839.97;5203280;28;20033;-72
2021/10/25 02:40:40;;;;;;;13.18;6.10;;;;;;;7.51;100.00;101836.19;5203034;28;20099;-72
2021/10/25 02:43:11;;;;;;;13.18;5.20;;;;;;;7.55;100.00;101835.00;5202421;28;20422;-72
2021/10/25 02:45:41;;;;;;;12.27;5.22;;;;;;;7.56;100.00;101825.16;5203196;28;20029;-72
2021/10/25 02:48:12;;;;;;;13.80;6.57;;;;;;;7.58;100.00;101826.75;5203646;28;20229;-72
2021/10/25 02:50:43;;;;;;;14.00;5.03;;;;;;;7.61;100.00;101825.63;5203051;28;20033;-72
2021/10/25 02:53:14;;;;;;;10.30;5.50;;;;;;;7.63;100.00;101826.34;5203560;28;20065;-72
2021/10/25 02:55:44;;;;;;;14.23;5.40;;;;;;;7.64;100.00;101826.25;5202826;28;20390;-71
2021/10/25 02:58:16;;;;;;;13.35;5.38;;;;;;;7.70;100.00;101817.72;5194720;28;20136;-71
2021/10/25 03:00:47;;;;;;;12.95;5.50;;;;;;;7.71;100.00;101816.75;5184778;28;20040;-71
2021/10/25 03:03:17;;;;;;;12.10;5.55;;;;;;;7.70;100.00;101814.22;5200880;28;20449;-71
2021/10/25 03:05:48;;;;;;;16.05;5.95;;;;;;;7.74;100.00;101813.00;5200495;28;20031;-71
2021/10/25 03:08:19;;;;;;;13.45;5.93;;;;;;;7.75;100.00;101810.19;5200657;28;20592;-71
2021/10/25 03:10:50;;;;;;;10.43;5.22;;;;;;;7.76;100.00;101803.88;5201869;28;20045;-71
2021/10/25 03:13:21;;;;;;;13.55;5.38;;;;;;;7.76;100.00;101803.88;5202594;28;20557;-71
2021/10/25 03:15:53;;;;;;;12.57;4.72;;;;;;;7.79;100.00;101808.13;5202556;28;20471;-71
2021/10/25 03:18:24;;;;;;;13.25;5.35;;;;;;;7.84;100.00;101808.59;5202480;28;20509;-72
2021/10/25 03:20:54;;;;;;;16.90;5.70;;;;;;;7.86;100.00;101808.47;5201883;28;20029;-71
2021/10/25 03:23:25;;;;;;;14.40;5.38;;;;;;;7.89;100.00;101802.91;5202173;28;20496;-71
2021/10/25 03:25:55;;;;;;;17.10;6.10;;;;;;;7.89;100.00;101801.06;5202419;28;20030;-71
2021/10/25 03:28:26;;;;;;;12.18;4.78;;;;;;;7.87;100.00;101813.69;5217444;28;20055;-71
2021/10/25 03:30:57;;;;;;;12.05;5.45;;;;;;;7.86;100.00;101803.13;5201803;28;20029;-71
2021/10/25 03:33:30;;;;;;;12.50;4.95;;;;;;;7.84;100.00;101800.59;5202206;28;20368;-71
2021/10/25 03:36:02;;;;;;;14.82;5.93;;;;;;;7.85;100.00;101802.28;5202197;28;20518;-71
2021/10/25 03:38:36;;;;;;;14.88;5.55;;;;;;;7.85;100.00;101801.44;5201929;28;20025;-71
2021/10/25 03:41:14;;;;;;;12.15;5.18;;;;;;;7.86;100.00;101798.63;5202250;28;20096;-71
2021/10/25 03:43:55;;;;;;;14.90;5.70;;;;;;;7.85;100.00;101799.63;5189839;28;20398;-71
2021/10/25 03:46:47;;;;;;;11.20;4.75;;;;;;;7.84;100.00;101795.25;5200747;28;20538;-71
2021/10/25 03:49:33;;;;;;;15.65;5.30;;;;;;;7.83;100.00;101798.91;5201621;28;20029;-71
2021/10/25 03:52:14;;;;;;;11.48;4.70;;;;;;;7.83;100.00;101793.56;5201574;28;20022;-71
2021/10/25 04:02:32;;;;;;;14.23;5.55;;;;;;;7.86;100.00;101789.78;5201106;28;20063;-71
2021/10/25 04:27:42;;;;;;;11.15;4.72;;;;;;;8.07;100.00;101806.69;5200932;28;20060;-71
2021/10/25 04:30:13;;;;;;;13.70;5.15;;;;;;;8.10;100.00;101801.13;5201057;28;20048;-71
2021/10/25 04:32:44;;;;;;;11.73;5.07;;;;;;;8.12;100.00;101803.66;5201239;28;20033;-71
2021/10/25 04:35:15;;;;;;;12.73;4.75;;;;;;;8.11;100.00;101802.81;5200770;28;20463;-71
2021/10/25 04:37:45;;;;;;;9.55;4.53;;;;;;;8.13;100.00;101800.84;5200683;28;20031;-71
2021/10/25 04:40:16;;;;;;;11.93;5.55;;;;;;;8.16;100.00;101799.75;5200654;28;20033;-71
2021/10/25 04:42:47;;;;;;;12.05;5.13;;;;;;;8.18;100.00;101800.47;5200928;28;20121;-71
2021/10/25 04:45:19;;;;;;;22.02;6.32;;;;;;;8.18;100.00;101796.00;5200804;28;20475;-71
2021/10/25 04:47:52;;;;;;;12.73;4.90;;;;;;;8.19;100.00;101789.66;5201023;28;20471;-71
2021/10/25 04:50:23;;;;;;;8.75;4.53;;;;;;;8.24;100.00;101797.31;5200200;28;20029;-71
2021/10/25 04:52:54;;;;;;;10.23;4.97;;;;;;;8.25;100.00;101796.31;5200758;28;20039;-71
2021/10/25 04:55:25;;;;;;;13.82;5.40;;;;;;;8.24;100.00;101789.28;5201009;28;20022;-71
2021/10/25 04:57:55;;;;;;;13.48;4.88;;;;;;;8.28;100.00;101793.38;5200566;28;20060;-71
2021/10/25 05:00:26;;;;;;;10.23;4.75;;;;;;;8.27;100.00;101789.00;5200434;28;20085;-72
2021/10/25 05:02:57;;;;;;;15.63;4.80;;;;;;;8.29;100.00;101785.25;5215564;28;20025;-72
2021/10/25 05:05:28;;;;;;;10.38;4.75;;;;;;;8.29;100.00;101792.41;5215973;28;20030;-72
2021/10/25 05:07:59;;;;;;;17.83;5.03;;;;;;;8.33;100.00;101783.16;5204644;28;20037;-73
2021/10/25 05:10:29;;;;;;;9.85;4.88;;;;;;;8.32;100.00;101784.13;5204407;28;20032;-73
2021/10/25 05:13:00;;;;;;;10.63;4.35;;;;;;;8.30;100.00;101786.94;5204721;28;20106;-73
2021/10/25 05:15:32;;;;;;;12.85;5.20;;;;;;;8.32;100.00;101784.13;5204761;28;20402;-73
2021/10/25 05:18:04;;;;;;;11.70;4.97;;;;;;;8.31;100.00;101782.44;5204794;28;20037;-73
2021/10/25 05:20:34;;;;;;;13.95;5.15;;;;;;;8.30;100.00;101776.25;5204542;28;20395;-73
2021/10/25 05:23:05;;;;;;;13.98;4.00;;;;;;;8.31;100.00;101782.44;5204698;28;20033;-73
2021/10/25 05:25:36;;;;;;;11.43;4.88;;;;;;;8.30;100.00;101778.06;5204090;28;20045;-73
2021/10/25 05:28:07;;;;;;;12.70;5.18;;;;;;;8.31;100.00;101777.09;5204656;28;20045;-73
2021/10/25 05:30:37;;;;;;;13.25;5.72;;;;;;;8.30;100.00;101764.69;5204396;28;20112;-73
2021/10/25 05:33:08;;;;;;;11.20;5.03;;;;;;;8.31;100.00;101769.91;5204366;28;20026;-73
2021/10/25 05:35:39;;;;;;;14.90;5.22;;;;;;;8.28;100.00;101770.19;5204149;28;20112;-73
2021/10/25 05:38:12;;;;;;;12.30;4.50;;;;;;;8.25;100.00;101773.09;5203892;28;20499;-73
2021/10/25 05:40:43;;;;;;;12.88;5.25;;;;;;;8.26;100.00;101771.28;5204163;28;20036;-73
2021/10/25 05:43:13;;;;;;;10.60;5.80;;;;;;;8.24;100.00;101766.06;5204143;28;20398;-73
2021/10/25 05:45:44;;;;;;;12.77;4.57;;;;;;;8.27;100.00;101770.28;5203979;28;20038;-73
2021/10/25 05:48:15;;;;;;;12.00;4.80;;;;;;;8.27;100.00;101768.47;5204115;28;20029;-73
2021/10/25 05:50:46;;;;;;;13.95;5.30;;;;;;;8.28;100.00;101767.50;5203534;28;20025;-73
2021/10/25 05:53:17;;;;;;;13.15;5.70;;;;;;;8.25;100.00;101762.41;5204029;28;20494;-72
2021/10/25 05:55:48;;;;;;;14.27;5.03;;;;;;;8.24;100.00;101766.06;5204180;28;20459;-73
2021/10/25 05:58:21;;;;;;;11.88;4.63;;;;;;;8.29;100.00;101766.53;5203956;28;20095;-73
2021/10/25 06:01:01;;;;;;;11.18;4.60;;;;;;;8.31;100.00;101766.41;5203488;28;20060;-73
2021/10/25 06:03:34;;;;;;;10.35;4.63;;;;;;;8.31;100.00;101755.69;5203875;28;20029;-73
2021/10/25 06:06:05;;;;;;;9.48;4.18;;;;;;;8.31;100.00;101758.38;5203899;28;20026;-73
2021/10/25 06:08:38;;;;;;;12.88;4.53;;;;;;;8.33;100.00;101764.44;5203534;28;20417;-73
2021/10/25 06:11:09;;;;;;;11.18;4.72;;;;;;;8.36;100.00;101774.91;5203334;28;20108;-73
2021/10/25 06:13:41;;;;;;;11.40;4.55;;;;;;;8.35;100.00;101777.69;5203185;28;20144;-73
2021/10/25 06:18:44;;;;;;;12.73;5.10;;;;;;;8.32;100.00;101779.63;5203379;28;20057;-73
2021/10/25 06:21:15;;;;;;;13.10;4.97;;;;;;;8.32;100.00;101784.97;5203451;28;20036;-73
2021/10/25 06:23:45;;;;;;;14.95;5.45;;;;;;;8.32;100.00;101773.44;5203138;28;20037;-73
2021/10/25 06:26:16;;;;;;;16.27;5.00;;;;;;;8.38;100.00;101775.63;5203076;28;20075;-72
2021/10/25 06:28:46;;;;;;;14.70;5.03;;;;;;;8.39;100.00;101774.66;5203705;28;20029;-72
2021/10/25 06:31:17;;;;;;;13.32;4.85;;;;;;;8.42;100.00;101776.22;5203465;28;20030;-72
2021/10/25 06:33:48;;;;;;;10.82;4.28;;;;;;;8.43;100.00;101778.75;5203432;28;20021;-73
2021/10/25 06:36:21;;;;;;;15.98;5.30;;;;;;;8.48;100.00;101773.88;5202860;28;20108;-73
2021/10/25 06:38:54;;;;;;;14.02;5.35;;;;;;;8.47;100.00;101777.50;5202789;28;20073;-73
2021/10/25 06:41:25;;;;;;;17.42;5.18;;;;;;;8.48;100.00;101786.38;5203578;28;20391;-72
2021/10/25 06:43:56;;;;;;;20.25;7.35;;;;;;;8.50;100.00;101789.78;5203243;28;20037;-72
2021/10/25 06:46:26;;;;;;;10.80;4.53;;;;;;;8.53;100.00;101778.81;5203019;28;20029;-72
2021/10/25 06:48:57;;;;;;;10.85;4.20;;;;;;;8.56;100.00;101782.09;5202497;28;20052;-72
2021/10/25 06:51:28;;;;;;;11.32;4.95;;;;;;;8.59;100.00;101770.28;5203026;28;20027;-72
2021/10/25 06:53:59;;;;;;;13.07;5.05;;;;;;;8.56;100.00;101771.38;5202935;28;20482;-72
2021/10/25 06:56:30;;;;;;;10.98;4.63;;;;;;;8.64;100.00;101775.25;5202644;28;20095;-72
2021/10/25 06:59:00;;;;;;;14.52;5.40;;;;;;;8.66;100.00;101778.63;5202440;28;20044;-72
2021/10/25 07:01:31;;;;;;;11.43;4.85;;;;;;;8.67;100.00;101777.66;5201242;28;20025;-73
2021/10/25 07:04:01;;;;;;;8.88;4.32;;;;;;;8.71;100.00;101763.88;5201356;28;20049;-72
2021/10/25 07:06:33;;;;;;;11.88;4.57;;;;;;;8.74;100.00;101774.34;5203159;28;20382;-73
2021/10/25 07:09:05;;;;;;;15.70;5.03;;;;;;;8.80;100.00;101789.84;5200865;28;20486;-73
2021/10/25 07:11:41;;;;;;;14.82;4.95;;;;;;;8.85;100.00;101789.47;5202880;28;20502;-73
2021/10/25 07:14:14;;;;;;;10.73;5.20;;;;;;;8.87;100.00;101784.81;5202240;28;20360;-72
2021/10/25 07:16:50;;;;;;;15.23;5.25;;;;;;;8.91;100.00;101791.59;5202510;28;20508;-72
2021/10/25 07:19:31;;;;;;;14.45;5.00;;;;;;;8.92;100.00;101790.63;5189300;28;20052;-72
2021/10/25 07:22:22;;;;;;;9.90;4.40;;;;;;;8.95;100.00;101803.75;5202572;28;20026;-73
2021/10/25 08:04:22;;;;;;;6.97;4.10;;;;;;;9.53;100.00;101817.38;5196227;28;20490;-72
2021/10/25 08:07:05;;;;;;;12.18;4.70;;;;;;;9.63;100.00;101811.22;5193486;28;20083;-72
2021/10/25 08:09:46;;;;;;;15.80;5.32;;;;;;;9.69;100.00;101806.16;5198150;28;20387;-72
2021/10/25 08:12:19;;;;;;;7.00;4.13;;;;;;;9.75;100.00;101812.81;5201289;28;20067;-72
2021/10/25 08:14:58;;;;;;;14.40;4.47;;;;;;;9.82;100.00;101804.06;5201280;28;20022;-72
2021/10/25 08:17:48;;;;;;;11.30;4.20;;;;;;;9.86;100.00;101810.00;5201232;28;20029;-72
2021/10/25 08:20:18;;;;;;;11.13;4.18;;;;;;;9.91;100.00;101802.41;5201158;28;20026;-72
2021/10/25 08:22:49;;;;;;;12.98;4.90;;;;;;;9.90;100.00;101800.72;5200824;28;20395;-72
2021/10/25 08:25:21;;;;;;;18.13;4.97;;;;;;;9.97;100.00;101804.50;5201156;28;20088;-72
2021/10/25 08:27:52;;;;;;;12.45;5.88;;;;;;;10.04;100.00;101794.06;5191293;28;20456;-72
2021/10/25 08:30:23;;;;;;;14.32;4.40;;;;;;;10.08;100.00;101796.34;5200725;28;20061;-72
2021/10/25 08:33:08;;;;;;;10.77;4.25;;;;;;;10.17;100.00;101791.97;5201196;28;20060;-72
2021/10/25 08:35:52;;;;;;;;;;;;;;;10.27;100.00;101789.31;5198705;28;20486;-72
2021/10/25 08:41:13;;;;;;;8.57;4.20;;;;;;;10.41;100.00;101798.78;5199940;28;20386;-72
2021/10/25 08:43:45;;;;;;;13.32;4.18;;;;;;;10.42;100.00;101805.84;5200895;28;20450;-72
2021/10/25 08:46:17;;;;;;;9.27;4.00;;;;;;;10.50;100.00;101803.31;5200782;28;20576;-72
2021/10/25 08:48:48;;;;;;;14.00;4.13;;;;;;;10.56;100.00;101803.56;5200848;28;20056;-72
2021/10/25 08:51:19;;;;;;;6.03;3.55;;;;;;;10.62;100.00;101802.16;5200855;28;20437;-72
2021/10/25 08:53:49;;;;;;;11.63;3.90;;;;;;;10.73;100.00;101801.16;5201268;28;20047;-72
2021/10/25 08:56:21;;;;;;;8.07;3.67;;;;;;;10.80;100.00;101795.06;5200657;28;20033;-72
2021/10/25 08:58:53;;;;;;;8.45;4.30;;;;;;;10.82;100.00;101792.22;5200794;28;20028;-72
2021/10/25 09:01:27;;;;;;;8.75;4.07;;;;;;;10.87;100.00;101784.59;5197388;28;20033;-72
2021/10/25 09:04:07;;;;;;;10.63;4.13;;;;;;;10.89;100.00;101793.34;5197482;28;20035;-72
2021/10/25 09:06:56;;;;;;;10.23;3.60;;;;;;;10.94;100.00;101788.38;5200618;28;20029;-72
2021/10/25 09:09:28;;;;;;;11.75;3.88;;;;;;;11.01;100.00;101799.41;5198956;28;20083;-72
2021/10/25 09:12:03;;;;;;;9.38;4.18;;;;;;;11.11;100.00;101795.69;5200735;28;20021;-73
2021/10/25 09:14:35;;;;;;;8.32;3.50;;;;;;;11.15;100.00;101797.09;5200670;28;20033;-72
2021/10/25 09:17:09;;;;;;;9.27;4.15;;;;;;;11.05;100.00;101798.13;5200340;28;20063;-73
2021/10/25 09:19:41;;;;;;;7.32;3.70;;;;;;;11.04;100.00;101797.25;5200290;28;20068;-73
2021/10/25 09:22:15;;;;;;;11.38;4.00;;;;;;;10.93;100.00;101799.25;5200451;28;20021;-73
2021/10/25 09:24:53;;;;;;;11.23;3.92;;;;;;;10.99;100.00;101790.63;5200692;28;20030;-73
2021/10/25 09:27:30;;;;;;;7.53;3.58;;;;;;;11.07;100.00;101788.06;5200572;28;20478;-73
2021/10/25 09:30:07;;;;;;;10.70;3.40;;;;;;;11.22;100.00;101789.28;5200651;28;20112;-73
2021/10/25 09:32:40;;;;;;;8.40;3.58;;;;;;;11.35;100.00;101787.09;5200433;28;20033;-73
2021/10/25 09:35:22;;;;;;;6.88;3.25;;;;;;;11.56;100.00;101786.00;5199882;28;20017;-73
2021/10/25 09:38:03;;;;;;;7.55;3.30;;;;;;;11.44;100.00;101787.19;5200137;28;20360;-73
2021/10/25 09:40:51;;;;;;;9.10;3.38;;;;;;;11.45;100.00;101784.38;5199997;28;20151;-73
2021/10/25 09:46:22;;;;;;;9.07;3.45;;;;;;;11.62;100.00;101774.66;5200069;28;20067;-73
2021/10/25 09:49:03;;;;;;;10.98;3.65;;;;;;;11.82;100.00;101783.47;5200199;28;20025;-73
2021/10/25 09:51:37;;;;;;;14.07;3.30;;;;;;;11.83;100.00;101777.09;5200975;28;20025;-73
2021/10/25 09:54:09;;;;;;;5.57;2.90;;;;;;;12.05;100.00;101776.69;5205100;28;20022;-73
2021/10/25 09:56:52;;;;;;;8.52;4.15;;;;;;;12.16;100.00;101771.06;5202472;28;20120;-73
2021/10/25 09:59:34;;;;;;;6.90;3.40;;;;;;;12.38;100.00;101782.34;5203771;28;20067;-73
2021/10/25 10:02:04;;;;;;;7.38;3.20;;;;;;;12.41;100.00;101774.81;5202214;28;20025;-73
2021/10/25 10:04:35;;;;;;;10.98;3.50;;;;;;;12.32;100.00;101774.88;5204240;28;20611;-73
2021/10/25 10:07:06;;;;;;;5.85;3.35;;;;;;;12.64;100.00;101776.97;5203461;28;20455;-73
2021/10/25 10:09:38;;;;;;;5.75;3.72;;;;;;;13.34;100.00;101777.75;5203355;28;20087;-73
2021/10/25 10:12:10;;;;;;;9.68;3.70;;;;;;;13.73;100.00;101772.69;5203854;28;20391;-73
2021/10/25 10:14:41;;;;;;;9.15;3.47;;;;;;;14.02;100.00;101778.66;5203560;28;20049;-73
2021/10/25 10:17:16;;;;;;;54.00;23.10;;;;;;;14.39;100.00;101787.13;5203440;28;20033;-73
2021/10/25 10:19:50;;;;;;;12.13;4.15;;;;;;;14.25;100.00;101774.28;5203612;28;20025;-73
2021/10/25 10:22:22;;;;;;;10.50;3.45;;;;;;;14.22;100.00;101775.47;5203835;28;20418;-73
2021/10/25 10:24:52;;;;;;;6.95;4.07;;;;;;;14.16;100.00;101778.84;5203324;28;20017;-73
2021/10/25 10:27:24;;;;;;;12.35;5.60;;;;;;;14.16;100.00;101778.00;5203980;28;20028;-73
2021/10/25 10:29:58;;;;;;;9.70;3.85;;;;;;;13.64;100.00;101780.91;5191570;28;20099;-73
2021/10/25 10:32:35;;;;;;;6.63;3.40;;;;;;;13.50;100.00;101776.16;5203322;28;20041;-73
2021/10/25 10:35:08;;;;;;;8.45;3.50;;;;;;;13.41;100.00;101775.28;5203312;28;20028;-73
2021/10/25 10:37:40;;;;;;;8.25;3.47;;;;;;;13.40;100.00;101774.44;5203604;28;20025;-73
2021/10/25 10:40:15;;;;;;;8.68;3.65;;;;;;;13.41;100.00;101772.59;5203042;28;20116;-73
2021/10/25 10:42:52;;;;;;;6.85;3.75;;;;;;;13.37;100.00;101782.00;5198197;28;20025;-72
2021/10/25 10:45:23;;;;;;;12.35;3.60;;;;;;;13.42;100.00;101776.97;5203018;28;20398;-73
2021/10/25 10:47:58;;;;;;;7.00;3.22;;;;;;;13.29;100.00;101776.56;5203112;28;20059;-73
2021/10/25 10:50:45;;;;;;;9.05;3.35;;;;;;;13.27;100.00;101778.59;5202596;28;20398;-72
2021/10/25 10:53:25;;;;;;;8.88;3.47;;;;;;;13.40;100.00;101774.44;5196026;28;20526;-73
2021/10/25 10:56:00;;;;;;;8.85;3.90;;;;;;;13.38;100.00;101771.06;5202771;28;20022;-73
2021/10/25 10:58:49;;;;;;;7.50;3.57;;;;;;;13.64;100.00;101776.38;5202845;28;20097;-73
2021/10/25 11:01:20;;;;;;;7.53;3.72;;;;;;;13.80;100.00;101763.94;5186474;28;20026;-73
2021/10/25 11:03:58;;;;;;;9.18;3.92;;;;;;;14.04;100.00;101771.22;5197527;28;20066;-73
2021/10/25 11:06:33;;;;;;;6.05;3.47;;;;;;;13.86;100.00;101774.94;5202961;28;20104;-73
2021/10/25 11:09:10;;;;;;;6.65;4.13;;;;;;;13.91;100.00;101774.44;5202170;28;20033;-72
2021/10/25 11:11:42;;;;;;;9.18;3.92;;;;;;;13.94;100.00;101771.38;5202399;28;20056;-72
2021/10/25 11:14:15;;;;;;;8.10;3.78;;;;;;;13.71;100.00;101777.41;5190564;28;20013;-72
2021/10/25 11:17:05;;;;;;;7.32;3.30;;;;;;;13.56;100.00;101773.66;5202228;28;20029;-72
2021/10/25 11:19:44;;;;;;;8.20;3.17;;;;;;;13.72;100.00;101768.31;5202278;28;20025;-72
2021/10/25 11:22:31;;;;;;;8.43;3.53;;;;;;;13.63;100.00;101771.16;5202310;28;20458;-72
2021/10/25 11:25:07;;;;;;;8.95;2.70;;;;;;;13.43;100.00;101773.25;5202436;28;20022;-72
2021/10/25 11:27:39;;;;;;;7.95;3.33;;;;;;;13.61;100.00;101776.72;5202572;28;20025;-72
2021/10/25 11:30:14;;;;;;;7.32;3.80;;;;;;;13.64;100.00;101764.75;5201508;28;20022;-72
2021/10/25 11:32:45;;;;;;;6.38;3.17;;;;;;;13.47;100.00;101763.84;5202335;28;20108;-72
2021/10/25 11:35:16;;;;;;;11.13;3.47;;;;;;;13.51;100.00;101765.22;5201639;28;20026;-73
2021/10/25 11:37:50;;;;;;;5.35;3.42;;;;;;;13.44;100.00;101759.63;5201983;28;20038;-73
2021/10/25 11:40:23;;;;;;;7.47;3.42;;;;;;;13.58;100.00;101755.47;5201634;28;20104;-73
2021/10/25 11:43:00;;;;;;;6.47;3.70;;;;;;;13.57;100.00;101759.16;5198428;28;20034;-73
2021/10/25 11:45:32;;;;;;;9.93;3.50;;;;;;;13.66;100.00;101757.34;5201662;28;20048;-73
2021/10/25 11:48:03;;;;;;;9.57;3.20;;;;;;;13.56;100.00;101760.19;5201839;28;20025;-73
2021/10/25 11:50:34;;;;;;;7.30;3.40;;;;;;;13.42;100.00;101760.81;5201973;28;20506;-73
2021/10/25 11:53:07;;;;;;;8.77;3.55;;;;;;;13.45;100.00;101760.44;5201352;28;20514;-73
2021/10/25 11:55:41;;;;;;;10.32;3.63;;;;;;;13.38;100.00;101751.34;5201522;28;20021;-73
2021/10/25 11:58:14;;;;;;;5.70;3.13;;;;;;;13.32;100.00;101755.53;5201706;28;20029;-73
2021/10/25 12:00:48;;;;;;;6.18;3.60;;;;;;;13.39;100.00;101753.88;5198450;28;20017;-73
2021/10/25 12:03:22;;;;;;;6.07;3.47;;;;;;;13.57;100.00;101742.16;5196290;28;20442;-73
2021/10/25 12:05:53;;;;;;;6.15;3.13;;;;;;;13.51;100.00;101749.03;5201374;28;20029;-73
2021/10/25 12:08:24;;;;;;;9.18;3.55;;;;;;;13.62;100.00;101748.72;5202003;28;20025;-73
2021/10/25 12:10:56;;;;;;;5.80;3.10;;;;;;;13.75;100.00;101740.16;5201690;28;20386;-73
2021/10/25 12:13:27;;;;;;;4.47;3.17;;;;;;;13.83;100.00;101742.03;5201552;28;20136;-73
2021/10/25 12:16:01;;;;;;;11.32;3.10;;;;;;;14.00;100.00;101744.56;5201435;28;20116;-73
2021/10/25 12:18:31;;;;;;;6.18;3.03;;;;;;;14.00;100.00;101749.13;5201140;28;20475;-73
2021/10/25 12:21:11;;;;;;;8.48;3.35;;;;;;;14.27;100.00;101747.16;5200852;28;20373;-73
2021/10/25 12:23:51;;;;;;;8.07;3.65;;;;;;;14.28;100.00;101746.97;5201156;28;20045;-73
2021/10/25 12:26:21;;;;;;;7.43;3.30;;;;;;;14.26;100.00;101749.00;5200981;28;20026;-73
2021/10/25 12:28:52;;;;;;;6.57;3.38;;;;;;;14.09;100.00;101731.94;5200537;28;20445;-73
2021/10/25 12:31:23;;;;;;;10.15;3.85;;;;;;;14.16;100.00;101734.84;5201139;28;20358;-73
2021/10/25 12:34:02;;;;;;;7.32;3.75;;;;;;;14.15;100.00;101719.63;5201432;28;20025;-73
2021/10/25 12:36:36;;;;;;;63.35;19.42;;;;;;;14.09;100.00;101718.44;5177814;28;20029;-73
2021/10/25 12:39:11;;;;;;;11.63;5.20;;;;;;;14.14;100.00;101713.41;5195874;28;20045;-73
2021/10/25 12:41:57;;;;;;;22.00;9.17;;;;;;;14.04;100.00;101726.22;5198549;28;20029;-73
2021/10/25 12:44:33;;;;;;;10.40;4.70;;;;;;;14.04;100.00;101718.13;5198041;28;20490;-73
2021/10/25 12:47:12;;;;;;;8.25;3.38;;;;;;;14.03;100.00;101724.53;5198420;28;20053;-74
2021/10/25 12:49:48;;;;;;;9.90;3.30;;;;;;;13.99;100.00;101726.72;5198170;28;20117;-73
2021/10/25 12:52:20;;;;;;;5.82;4.20;;;;;;;14.12;100.00;101714.59;5198394;28;20552;-73
2021/10/25 12:54:57;;;;;;;7.63;3.67;;;;;;;14.10;100.00;101717.44;5197039;28;20108;-73
2021/10/25 12:57:32;;;;;;;10.55;4.05;;;;;;;14.10;100.00;101717.44;5214154;28;20087;-73
2021/10/25 13:00:09;;;;;;;;;;;;;;;14.17;100.00;101715.78;5198266;28;20036;-73
2021/10/25 13:02:47;;;;;;;8.30;3.53;;;;;;;14.44;100.00;101713.72;5197951;28;19916;-73